createdAt,value
2018-04-01T00:02:22.365Z,80.00
2018-04-01T00:04:50.184Z,80.00
2018-04-01T00:07:17.273Z,80.00
2018-04-01T00:09:44.316Z,80.10
2018-04-01T00:12:11.367Z,79.90
2018-04-01T00:14:38.455Z,80.00
2018-04-01T00:17:05.495Z,80.00
2018-04-01T00:19:32.540Z,80.00
2018-04-01T00:21:59.668Z,80.00
2018-04-01T00:24:26.688Z,80.10
2018-04-01T00:26:53.775Z,80.10
2018-04-01T00:29:21.585Z,80.20
2018-04-01T00:31:48.624Z,80.00
2018-04-01T00:34:15.711Z,80.10
2018-04-01T00:36:42.777Z,80.00
2018-04-01T00:39:10.591Z,80.00
2018-04-01T00:41:37.681Z,79.90
2018-04-01T00:44:04.723Z,80.20
2018-04-01T00:46:31.802Z,80.30
2018-04-01T00:48:59.617Z,80.00
2018-04-01T00:51:26.700Z,80.00
2018-04-01T00:53:54.514Z,80.10
2018-04-01T00:56:21.591Z,80.10
2018-04-01T00:58:48.643Z,80.20
2018-04-01T01:01:15.723Z,80.30
2018-04-01T01:03:43.535Z,80.30
2018-04-01T01:06:10.612Z,80.20
2018-04-01T01:08:37.657Z,80.60
2018-04-01T01:11:05.509Z,80.30
2018-04-01T01:13:32.585Z,80.30
2018-04-01T01:16:00.399Z,80.50
2018-04-01T01:18:27.484Z,80.50
2018-04-01T01:20:54.528Z,80.50
2018-04-01T01:23:21.600Z,80.50
2018-04-01T01:25:49.417Z,80.50
2018-04-01T01:28:16.494Z,80.50
2018-04-01T01:30:43.535Z,80.50
2018-04-01T01:33:10.624Z,80.50
2018-04-01T01:35:38.451Z,80.60
2018-04-01T01:38:05.490Z,80.60
2018-04-01T01:40:32.554Z,80.60
2018-04-01T01:43:00.360Z,80.70
2018-04-01T01:45:27.421Z,80.60
2018-04-01T01:47:54.464Z,80.70
2018-04-01T01:50:21.546Z,80.80
2018-04-01T01:52:48.612Z,80.70
2018-04-01T01:55:15.653Z,80.80
2018-04-01T01:57:42.720Z,80.70
2018-04-01T02:00:09.780Z,80.80
2018-04-01T02:02:37.615Z,80.90
2018-04-01T02:05:06.184Z,80.80
2018-04-01T02:07:33.246Z,80.80
2018-04-01T02:10:00.329Z,80.80
2018-04-01T02:12:27.376Z,80.90
2018-04-01T02:14:55.207Z,80.80
2018-04-01T02:17:22.276Z,80.80
2018-04-01T02:19:49.324Z,80.80
2018-04-01T02:22:17.172Z,81.10
2018-04-01T02:24:44.257Z,80.70
2018-04-01T02:27:12.064Z,81.10
2018-04-01T02:29:39.136Z,81.10
2018-04-01T02:32:06.172Z,80.90
2018-04-01T02:34:33.410Z,80.90
2018-04-01T02:37:00.452Z,80.80
2018-04-01T02:39:27.536Z,80.90
2018-04-01T02:41:54.802Z,80.80
2018-04-01T02:44:21.843Z,80.90
2018-04-01T02:46:49.668Z,80.80
2018-04-01T02:49:16.728Z,80.80
2018-04-01T02:51:43.791Z,81.10
2018-04-01T02:54:10.849Z,81.00
2018-04-01T02:56:37.921Z,80.90
2018-04-01T02:59:05.729Z,81.10
2018-04-01T03:01:32.881Z,81.10
2018-04-01T03:03:59.928Z,81.10
2018-04-01T03:06:27.007Z,81.30
2018-04-01T03:08:54.065Z,81.30
2018-04-01T03:11:21.919Z,81.10
2018-04-01T03:13:48.987Z,81.60
2018-04-01T03:16:16.804Z,82.50
2018-04-01T03:18:43.894Z,81.60
2018-04-01T03:21:11.714Z,81.90
2018-04-01T03:23:38.785Z,81.90
2018-04-01T03:26:05.823Z,81.80
2018-04-01T03:28:32.890Z,81.90
2018-04-01T03:30:59.981Z,81.90
2018-04-01T03:33:27.085Z,81.90
2018-04-01T03:35:54.127Z,82.10
2018-04-01T03:38:21.215Z,81.90
2018-04-01T03:40:49.018Z,82.10
2018-04-01T03:43:16.097Z,82.00
2018-04-01T03:45:43.137Z,82.10
2018-04-01T03:48:10.218Z,82.10
2018-04-01T03:50:38.087Z,82.20
2018-04-01T03:53:05.897Z,82.20
2018-04-01T03:55:32.943Z,82.20
2018-04-01T03:58:00.017Z,82.10
2018-04-01T04:00:27.215Z,82.20
2018-04-01T04:02:54.219Z,82.30
2018-04-01T04:05:21.303Z,82.30
2018-04-01T04:07:49.154Z,82.20
2018-04-01T04:10:16.982Z,82.20
2018-04-01T04:12:44.029Z,82.10
2018-04-01T04:15:11.176Z,82.30
2018-04-01T04:17:38.263Z,82.40
2018-04-01T04:20:05.316Z,82.30
2018-04-01T04:22:33.155Z,82.30
2018-04-01T04:25:00.202Z,82.30
2018-04-01T04:27:27.293Z,82.40
2018-04-01T04:29:55.118Z,82.40
2018-04-01T04:32:22.199Z,82.40
2018-04-01T04:34:50.011Z,82.40
2018-04-01T04:37:17.088Z,82.30
2018-04-01T04:39:44.133Z,82.60
2018-04-01T04:42:11.226Z,82.50
2018-04-01T04:44:38.271Z,82.50
2018-04-01T04:47:06.117Z,82.60
2018-04-01T04:49:33.954Z,83.60
2018-04-01T04:52:01.027Z,82.70
2018-04-01T04:54:28.117Z,82.90
2018-04-01T04:56:55.191Z,82.70
2018-04-01T04:59:22.228Z,82.80
2018-04-01T05:01:49.311Z,82.90
2018-04-01T05:04:16.357Z,82.80
2018-04-01T05:06:43.423Z,82.70
2018-04-01T05:09:11.259Z,82.80
2018-04-01T05:11:39.880Z,82.80
2018-04-01T05:14:07.729Z,83.00
2018-04-01T05:16:34.816Z,82.90
2018-04-01T05:19:01.872Z,82.90
2018-04-01T05:21:28.962Z,83.00
2018-04-01T05:23:56.048Z,82.90
2018-04-01T05:26:23.860Z,83.20
2018-04-01T05:28:50.959Z,83.00
2018-04-01T05:31:18.769Z,83.00
2018-04-01T05:33:45.852Z,83.00
2018-04-01T05:36:12.905Z,83.10
2018-04-01T05:38:40.016Z,83.20
2018-04-01T05:41:07.074Z,83.20
2018-04-01T05:43:34.129Z,83.20
2018-04-01T05:46:01.201Z,83.30
2018-04-01T05:48:29.040Z,83.40
2018-04-01T05:50:56.124Z,83.30
2018-04-01T05:53:23.932Z,83.40
2018-04-01T05:55:51.025Z,83.40
2018-04-01T05:58:18.077Z,83.30
2018-04-01T06:00:45.889Z,83.60
2018-04-01T06:03:12.960Z,83.50
2018-04-01T06:05:40.004Z,83.50
2018-04-01T06:08:07.095Z,83.70
2018-04-01T06:10:34.905Z,83.60
2018-04-01T06:13:01.984Z,83.50
2018-04-01T06:15:29.166Z,83.60
2018-04-01T06:17:57.009Z,83.70
2018-04-01T06:20:24.111Z,83.70
2018-04-01T06:22:51.394Z,83.80
2018-04-01T06:25:18.477Z,83.80
2018-04-01T06:27:46.317Z,84.00
2018-04-01T06:30:14.889Z,84.00
2018-04-01T06:32:41.936Z,83.90
2018-04-01T06:35:09.026Z,84.10
2018-04-01T06:37:36.837Z,84.20
2018-04-01T06:40:03.960Z,84.20
2018-04-01T06:42:31.776Z,84.60
2018-04-01T06:44:58.826Z,85.30
2018-04-01T06:47:25.894Z,84.70
2018-04-01T06:49:53.716Z,85.00
2018-04-01T06:52:20.912Z,85.00
2018-04-01T06:54:48.755Z,85.40
2018-04-01T06:57:15.897Z,85.40
2018-04-01T06:59:43.015Z,86.20
2018-04-01T07:02:10.078Z,85.60
2018-04-01T07:04:37.167Z,85.70
2018-04-01T07:07:05.022Z,86.10
2018-04-01T07:09:32.076Z,86.10
2018-04-01T07:11:59.156Z,86.00
2018-04-01T07:14:26.231Z,86.10
2018-04-01T07:16:53.280Z,86.00
2018-04-01T07:19:20.353Z,86.20
2018-04-01T07:21:47.406Z,86.40
2018-04-01T07:24:14.507Z,86.40
2018-04-01T07:26:41.546Z,86.20
2018-04-01T07:29:08.612Z,86.30
2018-04-01T07:31:35.703Z,86.30
2018-04-01T07:34:02.748Z,86.30
2018-04-01T07:36:30.691Z,86.60
2018-04-01T07:38:57.732Z,86.50
2018-04-01T07:41:24.781Z,86.70
2018-04-01T07:43:51.853Z,86.50
2018-04-01T07:46:18.984Z,86.40
2018-04-01T07:48:46.248Z,86.30
2018-04-01T07:51:13.301Z,86.40
2018-04-01T07:53:40.367Z,86.40
2018-04-01T07:56:07.412Z,86.40
2018-04-01T07:58:34.510Z,86.40
2018-04-01T08:01:01.590Z,86.40
2018-04-01T08:03:28.671Z,86.40
2018-04-01T08:05:55.712Z,86.40
2018-04-01T08:08:22.785Z,86.40
2018-04-01T08:10:50.628Z,86.60
2018-04-01T08:13:17.690Z,86.60
2018-04-01T08:15:45.504Z,86.40
2018-04-01T08:18:12.573Z,86.40
2018-04-01T08:20:39.619Z,86.50
2018-04-01T08:23:06.713Z,86.40
2018-04-01T08:25:34.554Z,86.40
2018-04-01T08:28:01.607Z,86.40
2018-04-01T08:30:29.443Z,86.50
2018-04-01T08:32:56.501Z,86.40
2018-04-01T08:35:23.576Z,86.40
2018-04-01T08:37:51.387Z,86.60
2018-04-01T08:40:18.465Z,86.50
2018-04-01T08:42:45.553Z,86.60
2018-04-01T08:45:13.368Z,86.70
2018-04-01T08:47:41.532Z,86.70
2018-04-01T08:50:08.554Z,86.50
2018-04-01T08:52:35.621Z,86.40
2018-04-01T08:55:02.898Z,86.50
2018-04-01T08:57:29.952Z,86.60
2018-04-01T08:59:57.024Z,86.80
2018-04-01T09:02:24.839Z,86.90
2018-04-01T09:04:51.936Z,86.80
2018-04-01T09:07:19.749Z,87.00
2018-04-01T09:09:46.832Z,87.00
2018-04-01T09:12:13.882Z,86.90
2018-04-01T09:14:40.968Z,86.90
2018-04-01T09:17:08.017Z,86.80
2018-04-01T09:19:35.112Z,86.80
2018-04-01T09:22:02.153Z,86.70
2018-04-01T09:24:29.223Z,86.70
2018-04-01T09:26:56.271Z,86.90
2018-04-01T09:29:23.340Z,87.20
2018-04-01T09:31:51.160Z,86.70
2018-04-01T09:34:18.301Z,86.60
2018-04-01T09:36:45.351Z,86.60
2018-04-01T09:39:12.444Z,86.60
2018-04-01T09:41:40.256Z,86.00
2018-04-01T09:44:07.402Z,86.00
2018-04-01T09:46:35.185Z,85.80
2018-04-01T09:49:02.278Z,85.80
2018-04-01T09:51:30.091Z,85.70
2018-04-01T09:53:57.178Z,85.60
2018-04-01T09:56:24.268Z,85.60
2018-04-01T09:58:51.339Z,85.50
2018-04-01T10:01:18.901Z,85.20
2018-04-01T10:03:46.443Z,85.30
2018-04-01T10:06:14.001Z,85.20
2018-04-01T10:08:41.580Z,85.00
2018-04-01T10:11:09.160Z,84.90
2018-04-01T10:13:36.695Z,84.80
2018-04-01T10:16:04.269Z,84.20
2018-04-01T10:18:31.796Z,84.70
2018-04-01T10:20:59.376Z,83.50
2018-04-01T10:23:27.164Z,83.40
2018-04-01T10:25:54.694Z,83.40
2018-04-01T10:28:22.248Z,83.20
2018-04-01T10:30:49.810Z,82.60
2018-04-01T10:33:17.388Z,81.30
2018-04-01T10:35:44.939Z,81.20
2018-04-01T10:38:12.499Z,81.20
2018-04-01T10:40:40.058Z,81.80
2018-04-01T10:43:07.695Z,82.00
2018-04-01T10:45:35.279Z,81.60
2018-04-01T10:48:02.943Z,81.50
2018-04-01T10:50:30.482Z,81.60
2018-04-01T10:52:58.109Z,81.40
2018-04-01T10:55:25.314Z,81.00
2018-04-01T10:57:52.463Z,81.10
2018-04-01T11:00:19.622Z,80.60
2018-04-01T11:02:46.695Z,81.00
2018-04-01T11:05:13.820Z,80.60
2018-04-01T11:07:40.963Z,79.80
2018-04-01T11:10:08.052Z,79.40
2018-04-01T11:12:35.159Z,78.00
2018-04-01T11:15:02.413Z,77.50
2018-04-01T11:17:29.496Z,77.80
2018-04-01T11:19:56.626Z,76.40
2018-04-01T11:22:23.761Z,75.90
2018-04-01T11:24:50.887Z,76.30
2018-04-01T11:27:17.929Z,76.80
2018-04-01T11:29:45.060Z,77.80
2018-04-01T11:32:12.929Z,78.20
2018-04-01T11:34:40.810Z,78.20
2018-04-01T11:37:07.894Z,78.10
2018-04-01T11:39:34.964Z,80.10
2018-04-01T11:42:02.059Z,79.70
2018-04-01T11:44:29.155Z,80.00
2018-04-01T11:46:56.287Z,80.20
2018-04-01T11:49:23.388Z,79.80
2018-04-01T11:51:51.202Z,79.90
2018-04-01T11:54:18.274Z,79.90
2018-04-01T11:56:45.414Z,79.70
2018-04-01T11:59:12.514Z,80.20
2018-04-01T12:01:40.359Z,79.60
2018-04-01T12:04:07.411Z,79.60
2018-04-01T12:06:34.476Z,79.30
2018-04-01T12:09:02.374Z,79.90
2018-04-01T12:11:29.387Z,79.90
2018-04-01T12:13:56.465Z,79.60
2018-04-01T12:16:24.285Z,79.60
2018-04-01T12:21:57.810Z,79.40
2018-04-01T12:24:24.928Z,78.50
2018-04-01T12:26:52.049Z,79.40
2018-04-01T12:29:19.064Z,80.00
2018-04-01T12:31:46.139Z,80.10
2018-04-01T12:34:14.155Z,80.50
2018-04-01T12:36:41.221Z,79.10
2018-04-01T12:39:08.283Z,78.50
2018-04-01T12:41:35.336Z,77.30
2018-04-01T12:44:02.428Z,76.90
2018-04-01T12:46:30.235Z,76.90
2018-04-01T12:48:57.315Z,76.90
2018-04-01T12:51:24.381Z,76.40
2018-04-01T12:53:52.224Z,78.50
2018-04-01T12:56:19.304Z,78.40
2018-04-01T12:58:47.135Z,79.90
2018-04-01T13:01:14.191Z,79.80
2018-04-01T13:03:41.273Z,80.30
2018-04-01T13:06:09.083Z,80.50
2018-04-01T13:08:36.157Z,80.50
2018-04-01T13:11:03.229Z,80.50
2018-04-01T13:13:31.064Z,80.90
2018-04-01T13:15:58.153Z,80.90
2018-04-01T13:18:25.201Z,80.90
2018-04-01T13:20:52.263Z,81.10
2018-04-01T13:23:19.328Z,81.50
2018-04-01T13:25:46.683Z,81.70
2018-04-01T13:28:13.734Z,81.20
2018-04-01T13:30:40.822Z,81.30
2018-04-01T13:33:08.628Z,80.80
2018-04-01T13:35:35.749Z,80.80
2018-04-01T13:38:03.562Z,80.80
2018-04-01T13:40:30.617Z,80.70
2018-04-01T13:42:57.722Z,80.50
2018-04-01T13:45:25.535Z,79.20
2018-04-01T13:47:52.871Z,79.20
2018-04-01T13:50:19.929Z,79.40
2018-04-01T13:52:46.984Z,79.30
2018-04-01T13:55:14.092Z,79.60
2018-04-01T13:57:41.476Z,79.50
2018-04-01T14:00:08.563Z,79.80
2018-04-01T14:02:35.611Z,79.90
2018-04-01T14:05:03.455Z,80.00
2018-04-01T14:07:30.499Z,80.00
2018-04-01T14:09:57.581Z,79.50
2018-04-01T14:12:24.671Z,78.90
2018-04-01T14:14:51.742Z,79.60
2018-04-01T14:17:18.815Z,79.40
2018-04-01T14:19:45.904Z,78.90
2018-04-01T14:22:12.990Z,77.60
2018-04-01T14:24:40.034Z,78.30
2018-04-01T14:27:07.145Z,78.60
2018-04-01T14:29:34.208Z,79.70
2018-04-01T14:32:01.289Z,80.50
2018-04-01T14:34:28.332Z,80.80
2018-04-01T14:36:55.368Z,81.30
2018-04-01T14:39:22.448Z,81.40
2018-04-01T14:41:49.522Z,81.70
2018-04-01T14:44:17.333Z,82.10
2018-04-01T14:46:44.408Z,82.00
2018-04-01T14:49:11.475Z,82.20
2018-04-01T14:51:38.539Z,82.20
2018-04-01T14:54:06.378Z,82.30
2018-04-01T14:56:33.446Z,82.10
2018-04-01T14:59:01.262Z,82.40
2018-04-01T15:01:28.341Z,82.30
2018-04-01T15:03:55.403Z,82.00
2018-04-01T15:06:22.471Z,82.00
2018-04-01T15:08:49.661Z,82.20
2018-04-01T15:11:16.724Z,82.10
2018-04-01T15:13:44.073Z,81.90
2018-04-01T15:16:11.640Z,82.10
2018-04-01T15:18:38.693Z,82.10
2018-04-01T15:21:05.778Z,82.00
2018-04-01T15:23:33.592Z,82.60
2018-04-01T15:26:00.727Z,81.70
2018-04-01T15:28:27.796Z,82.10
2018-04-01T15:30:54.872Z,82.10
2018-04-01T15:33:23.421Z,82.20
2018-04-01T15:35:51.865Z,82.20
2018-04-01T15:38:18.917Z,82.20
2018-04-01T15:40:46.033Z,82.30
2018-04-01T15:43:13.053Z,82.10
2018-04-01T15:45:40.134Z,81.70
2018-04-01T15:48:07.932Z,81.50
2018-04-01T15:50:34.993Z,81.40
2018-04-01T15:53:02.035Z,81.60
2018-04-01T15:55:29.125Z,81.60
2018-04-01T15:57:56.204Z,81.40
2018-04-01T16:00:23.257Z,81.20
2018-04-01T16:02:50.323Z,81.50
2018-04-01T16:05:17.366Z,81.20
2018-04-01T16:07:44.431Z,81.50
2018-04-01T16:10:13.111Z,81.30
2018-04-01T16:12:41.111Z,81.50
2018-04-01T16:15:08.155Z,81.50
2018-04-01T16:17:35.219Z,81.10
2018-04-01T16:20:02.275Z,81.30
2018-04-01T16:22:29.341Z,80.70
2018-04-01T16:24:57.171Z,80.50
2018-04-01T16:27:24.212Z,80.50
2018-04-01T16:29:51.272Z,80.40
2018-04-01T16:32:18.391Z,80.40
2018-04-01T16:34:45.454Z,80.60
2018-04-01T16:37:12.520Z,80.70
2018-04-01T16:39:40.433Z,80.70
2018-04-01T16:42:08.205Z,80.80
2018-04-01T16:44:35.374Z,80.80
2018-04-01T16:47:02.418Z,80.70
2018-04-01T16:49:29.495Z,80.80
2018-04-01T16:51:56.548Z,81.00
2018-04-01T16:54:23.599Z,81.00
2018-04-01T16:56:50.663Z,81.20
2018-04-01T16:59:18.473Z,81.30
2018-04-01T17:01:45.536Z,81.20
2018-04-01T17:04:12.575Z,81.30
2018-04-01T17:06:39.645Z,81.40
2018-04-01T17:09:06.685Z,81.30
2018-04-01T17:11:33.768Z,81.30
2018-04-01T17:14:00.832Z,81.30
2018-04-01T17:16:28.635Z,81.40
2018-04-01T17:18:55.700Z,81.40
2018-04-01T17:21:22.888Z,81.40
2018-04-01T17:23:49.919Z,81.40
2018-04-01T17:26:16.963Z,81.40
2018-04-01T17:28:44.039Z,81.30
2018-04-01T17:31:11.852Z,81.10
2018-04-01T17:33:38.927Z,81.10
2018-04-01T17:36:05.994Z,81.10
2018-04-01T17:38:33.798Z,81.20
2018-04-01T17:41:00.875Z,81.20
2018-04-01T17:43:27.923Z,81.30
2018-04-01T17:45:55.004Z,81.10
2018-04-01T17:48:22.810Z,81.50
2018-04-01T17:50:49.887Z,81.40
2018-04-01T17:53:16.919Z,81.50
2018-04-01T17:55:44.004Z,81.30
2018-04-01T17:58:11.057Z,81.80
2018-04-01T18:00:38.117Z,81.00
2018-04-01T18:03:05.947Z,81.00
2018-04-01T18:05:32.986Z,80.90
2018-04-01T18:08:00.075Z,80.60
2018-04-01T18:10:27.899Z,80.90
2018-04-01T18:12:54.980Z,80.90
2018-04-01T18:15:22.023Z,81.10
2018-04-01T18:17:49.088Z,80.90
2018-04-01T18:20:17.027Z,80.60
2018-04-01T18:22:44.079Z,80.60
2018-04-01T18:25:11.149Z,80.30
2018-04-01T18:27:38.988Z,80.50
2018-04-01T18:30:06.044Z,81.20
2018-04-01T18:32:33.117Z,80.40
2018-04-01T18:35:00.968Z,81.00
2018-04-01T18:37:30.025Z,81.20
2018-04-01T18:39:57.284Z,80.90
2018-04-01T18:42:24.361Z,80.00
2018-04-01T18:44:52.220Z,80.30
2018-04-01T18:47:19.260Z,80.30
2018-04-01T18:49:46.488Z,80.00
2018-04-01T18:52:13.634Z,79.70
2018-04-01T18:54:40.679Z,79.50
2018-04-01T18:57:07.737Z,79.50
2018-04-01T18:59:34.805Z,79.50
2018-04-01T19:02:01.853Z,79.60
2018-04-01T19:04:28.914Z,79.50
2018-04-01T19:06:55.975Z,79.40
2018-04-01T19:09:23.834Z,79.80
2018-04-01T19:11:50.883Z,79.90
2018-04-01T19:14:17.980Z,79.50
2018-04-01T19:16:52.494Z,79.70
2018-04-01T19:19:20.092Z,79.50
2018-04-01T19:21:47.693Z,80.10
2018-04-01T19:24:15.992Z,79.60
2018-04-01T19:26:43.548Z,79.60
2018-04-01T19:29:11.163Z,79.60
2018-04-01T19:31:38.785Z,79.40
2018-04-01T19:34:06.314Z,79.70
2018-04-01T19:36:33.927Z,79.70
2018-04-01T19:39:01.558Z,79.60
2018-04-01T19:41:29.206Z,79.60
2018-04-01T19:43:56.692Z,79.70
2018-04-01T19:46:24.349Z,79.70
2018-04-01T19:48:51.935Z,79.70
2018-04-01T19:51:19.512Z,79.80
2018-04-01T19:53:47.048Z,79.90
2018-04-01T19:56:15.672Z,79.90
2018-04-01T19:58:43.966Z,80.10
2018-04-01T20:01:11.533Z,80.10
2018-04-01T20:03:39.204Z,80.00
2018-04-01T20:06:06.752Z,80.30
2018-04-01T20:08:34.306Z,80.10
2018-04-01T20:11:01.840Z,80.20
2018-04-01T20:13:30.168Z,80.30
2018-04-01T20:15:57.765Z,80.30
2018-04-01T20:18:26.125Z,80.40
2018-04-01T20:20:53.748Z,80.40
2018-04-01T20:23:21.330Z,80.20
2018-04-01T20:25:48.854Z,80.20
2018-04-01T20:28:17.155Z,80.30
2018-04-01T20:30:44.724Z,80.30
2018-04-01T20:33:12.284Z,80.40
2018-04-01T20:35:39.847Z,80.50
2018-04-01T20:38:07.409Z,80.40
2018-04-01T20:40:35.067Z,80.60
2018-04-01T20:43:02.640Z,80.70
2018-04-01T20:45:30.289Z,80.40
2018-04-01T20:47:57.832Z,80.40
2018-04-01T20:50:25.391Z,80.20
2018-04-01T20:52:52.955Z,80.20
2018-04-01T20:55:20.485Z,80.50
2018-04-01T20:57:48.819Z,80.20
2018-04-01T21:00:16.353Z,80.20
2018-04-01T21:02:43.930Z,79.90
2018-04-01T21:05:12.236Z,79.90
2018-04-01T21:07:40.559Z,79.90
2018-04-01T21:10:08.087Z,79.90
2018-04-01T21:12:35.640Z,80.10
2018-04-01T21:15:03.187Z,79.70
2018-04-01T21:17:30.751Z,79.70
2018-04-01T21:19:58.283Z,79.70
2018-04-01T21:22:25.836Z,79.70
2018-04-01T21:24:53.362Z,79.80
2018-04-01T21:27:21.707Z,79.70
2018-04-01T21:29:49.246Z,79.70
2018-04-01T21:32:16.808Z,79.70
2018-04-01T21:34:44.341Z,79.70
2018-04-01T21:37:11.921Z,79.70
2018-04-01T21:39:39.460Z,79.70
2018-04-01T21:42:07.030Z,79.80
2018-04-01T21:44:34.603Z,79.80
2018-04-01T21:47:02.134Z,79.80
2018-04-01T21:49:29.714Z,79.90
2018-04-01T21:51:57.249Z,79.80
2018-04-01T21:54:24.814Z,79.70
2018-04-01T21:56:52.354Z,79.80
2018-04-01T21:59:20.708Z,80.00
2018-04-01T22:01:48.240Z,80.00
2018-04-01T22:04:15.772Z,80.00
2018-04-01T22:06:43.336Z,80.00
2018-04-01T22:09:10.907Z,80.00
2018-04-01T22:11:38.441Z,80.00
2018-04-01T22:14:05.976Z,80.00
2018-04-01T22:16:34.311Z,80.00
2018-04-01T22:19:01.856Z,80.00
2018-04-01T22:21:29.407Z,80.20
2018-04-01T22:23:56.970Z,80.10
2018-04-01T22:26:24.541Z,80.20
2018-04-01T22:28:52.111Z,80.20
2018-04-01T22:31:19.667Z,80.20
2018-04-01T22:33:47.205Z,80.20
2018-04-01T22:36:14.767Z,80.50
2018-04-01T22:38:42.300Z,80.20
2018-04-01T22:41:10.640Z,80.30
2018-04-01T22:43:38.174Z,80.20
2018-04-01T22:46:05.748Z,80.30
2018-04-01T22:48:33.291Z,80.20
2018-04-01T22:51:00.844Z,80.30
2018-04-01T22:53:28.415Z,80.30
2018-04-01T22:55:55.972Z,80.40
2018-04-01T22:58:23.552Z,80.30
2018-04-01T23:00:51.091Z,80.30
2018-04-01T23:03:18.627Z,80.20
2018-04-01T23:05:46.193Z,80.20
2018-04-01T23:08:13.760Z,80.30
2018-04-01T23:10:41.293Z,80.30
2018-04-01T23:13:09.619Z,80.20
2018-04-01T23:15:37.151Z,80.20
2018-04-01T23:18:04.731Z,80.50
2018-04-01T23:20:32.300Z,80.20
2018-04-01T23:22:59.834Z,80.20
2018-04-01T23:25:27.399Z,80.10
2018-04-01T23:27:54.958Z,80.20
2018-04-01T23:30:22.496Z,80.20
2018-04-01T23:32:50.824Z,80.30
2018-04-01T23:35:18.405Z,80.30
2018-04-01T23:37:45.936Z,80.20
2018-04-01T23:40:13.472Z,80.20
2018-04-01T23:42:41.042Z,80.20
2018-04-01T23:45:08.569Z,80.30
2018-04-01T23:47:36.901Z,80.40
2018-04-01T23:50:04.436Z,80.30
2018-04-01T23:52:32.013Z,80.20
2018-04-01T23:54:59.547Z,80.40
2018-04-01T23:57:27.099Z,80.40
2018-04-01T23:59:54.658Z,80.40
